Time;durP1;ratioP1;P1;durP2;ratioP2;P2;SDS_P1;SDS_P2;PMS_P1;PMS_P2;Temp;Humidity;BMP_temperature;BMP_pressure;BME280_temperature;BME280_humidity;BME280_pressure;Samples;Min_cycle;Max_cycle;Signal;HPM_P1;HPM_P2
2022/09/21 00:01:18;;;;;;;7.63;4.03;;;8.50;99.90;;;;;;5051675;28;20024;-58
2022/09/21 00:03:45;;;;;;;11.10;3.63;;;8.40;99.90;;;;;;5043511;28;20453;-57
2022/09/21 00:06:15;;;;;;;5.97;2.83;;;8.50;99.90;;;;;;5032182;28;20088;-58
2022/09/21 00:08:41;;;;;;;8.35;3.70;;;8.50;99.90;;;;;;5031837;28;20021;-58
2022/09/21 00:11:10;;;;;;;9.25;3.88;;;8.40;99.90;;;;;;5030047;28;20025;-58
2022/09/21 00:13:36;;;;;;;9.57;3.70;;;8.40;99.90;;;;;;5030644;28;20167;-58
2022/09/21 00:16:04;;;;;;;4.28;2.97;;;8.40;99.90;;;;;;5030280;28;20048;-57
2022/09/21 00:18:30;;;;;;;6.22;3.85;;;8.40;99.90;;;;;;5029472;28;20025;-58
2022/09/21 00:20:55;;;;;;;10.20;3.60;;;8.40;99.90;;;;;;5030827;28;20108;-58
2022/09/21 00:23:22;;;;;;;7.13;3.60;;;8.40;99.90;;;;;;5030600;28;20025;-58
2022/09/21 00:25:48;;;;;;;7.35;3.70;;;8.30;99.90;;;;;;5030930;28;20052;-58
2022/09/21 00:28:13;;;;;;;7.53;3.90;;;8.30;99.90;;;;;;5030638;28;20029;-58
2022/09/21 00:30:39;;;;;;;4.18;3.22;;;8.30;99.90;;;;;;5030594;28;20036;-58
2022/09/21 00:33:05;;;;;;;9.00;3.42;;;8.30;99.90;;;;;;5030443;28;20029;-58
2022/09/21 00:35:31;;;;;;;6.38;3.80;;;8.30;99.90;;;;;;5037542;28;20412;-58
2022/09/21 00:38:01;;;;;;;6.85;3.25;;;8.20;99.90;;;;;;5030293;28;20557;-58
2022/09/21 00:40:26;;;;;;;7.55;3.13;;;8.20;99.90;;;;;;5030241;28;20036;-56
2022/09/21 00:42:52;;;;;;;6.18;3.45;;;8.20;99.90;;;;;;5029685;28;20026;-56
2022/09/21 00:45:20;;;;;;;6.28;3.65;;;8.10;99.90;;;;;;5028375;28;20468;-56
2022/09/21 00:47:50;;;;;;;9.60;3.92;;;8.10;99.90;;;;;;5029458;28;20044;-56
2022/09/21 00:50:20;;;;;;;8.23;4.57;;;8.20;99.90;;;;;;5029922;28;20029;-56
2022/09/21 00:52:54;;;;;;;9.32;4.35;;;8.20;99.90;;;;;;5029261;28;20040;-56
2022/09/21 00:55:41;;;;;;;9.20;4.18;;;8.20;99.90;;;;;;5029987;28;20483;-56
2022/09/21 00:58:14;;;;;;;11.68;4.85;;;8.20;99.90;;;;;;5029988;28;20032;-56
2022/09/21 01:00:40;;;;;;;7.78;4.28;;;8.20;99.90;;;;;;5027150;28;20116;-57
2022/09/21 01:03:08;;;;;;;7.07;4.05;;;8.20;99.90;;;;;;5029655;28;20750;-56
2022/09/21 01:05:33;;;;;;;12.00;5.25;;;8.20;99.90;;;;;;5040241;28;20028;-56
2022/09/21 01:08:02;;;;;;;13.88;4.38;;;8.20;99.90;;;;;;5049914;28;20025;-57
2022/09/21 01:10:39;;;;;;;7.75;3.95;;;8.20;99.90;;;;;;5048522;28;20044;-56
2022/09/21 01:13:31;;;;;;;5.00;4.07;;;8.20;99.90;;;;;;5049351;28;20025;-56
2022/09/21 01:16:17;;;;;;;10.70;3.78;;;8.10;99.90;;;;;;5049923;28;20166;-56
2022/09/21 01:18:57;;;;;;;7.80;3.90;;;8.10;99.90;;;;;;5049446;28;20060;-56
2022/09/21 01:21:29;;;;;;;10.20;4.20;;;8.10;99.90;;;;;;5049766;28;20105;-55
2022/09/21 01:24:21;;;;;;;5.97;4.15;;;8.00;99.90;;;;;;5048035;28;20708;-56
2022/09/21 01:26:49;;;;;;;9.15;4.40;;;8.00;99.90;;;;;;5048249;28;20036;-56
2022/09/21 01:29:33;;;;;;;6.88;4.13;;;8.00;99.90;;;;;;5049945;28;20029;-56
2022/09/21 01:32:10;;;;;;;8.95;4.22;;;7.90;99.90;;;;;;5054178;28;20044;-56
2022/09/21 01:35:10;;;;;;;5.75;4.60;;;7.90;99.90;;;;;;5038971;28;20037;-57
2022/09/21 01:37:52;;;;;;;10.80;5.30;;;7.90;99.90;;;;;;5015017;28;20049;-57
2022/09/21 01:40:26;;;;;;;9.13;5.32;;;7.90;99.90;;;;;;5013571;28;20030;-57
2022/09/21 01:42:53;;;;;;;11.73;5.75;;;7.90;99.90;;;;;;5014810;28;20026;-57
2022/09/21 01:45:26;;;;;;;15.05;5.78;;;7.90;99.90;;;;;;5014948;28;20104;-57
2022/09/21 01:47:55;;;;;;;13.68;6.22;;;7.90;99.90;;;;;;5014578;28;20038;-57
2022/09/21 01:50:21;;;;;;;9.90;5.70;;;8.00;99.90;;;;;;5014642;28;20033;-56
2022/09/21 01:53:17;;;;;;;8.60;5.90;;;8.00;99.90;;;;;;5014699;28;20026;-58
2022/09/21 01:55:49;;;;;;;10.05;5.30;;;7.90;99.90;;;;;;5014558;28;20076;-56
2022/09/21 01:58:31;;;;;;;7.70;4.82;;;7.90;99.90;;;;;;5014603;28;20018;-58
2022/09/21 02:00:58;;;;;;;12.98;5.82;;;7.90;99.90;;;;;;5014517;28;20430;-58
2022/09/21 02:03:38;;;;;;;8.20;5.45;;;7.90;99.90;;;;;;5030988;28;20529;-57
2022/09/21 02:06:05;;;;;;;8.38;5.07;;;7.90;99.90;;;;;;5045467;28;20036;-58
2022/09/21 02:08:31;;;;;;;8.27;5.50;;;7.80;99.90;;;;;;5053883;28;20083;-58
2022/09/21 02:11:01;;;;;;;5.18;4.30;;;7.80;99.90;;;;;;5052533;28;20592;-58
2022/09/21 02:13:32;;;;;;;7.43;4.35;;;7.70;99.90;;;;;;5050185;28;20090;-58
2022/09/21 02:16:04;;;;;;;7.43;5.13;;;7.70;99.90;;;;;;5017802;28;20487;-58
2022/09/21 02:18:44;;;;;;;8.45;4.60;;;7.60;99.90;;;;;;5015125;28;20065;-58
2022/09/21 02:21:40;;;;;;;8.25;4.25;;;7.50;99.90;;;;;;5013966;28;20026;-58
2022/09/21 02:24:23;;;;;;;9.75;4.63;;;7.60;99.90;;;;;;5012742;28;20034;-58
2022/09/21 02:27:01;;;;;;;7.40;4.20;;;7.50;99.90;;;;;;5014044;28;20037;-58
2022/09/21 02:29:40;;;;;;;8.27;4.90;;;7.40;99.90;;;;;;5013682;28;20056;-56
2022/09/21 02:32:13;;;;;;;8.95;5.00;;;7.40;99.90;;;;;;5013637;28;20029;-57
2022/09/21 02:34:51;;;;;;;6.50;4.72;;;7.40;99.90;;;;;;5039173;28;20075;-57
2022/09/21 02:37:46;;;;;;;9.30;4.93;;;7.40;99.90;;;;;;5025586;28;20037;-56
2022/09/21 02:40:30;;;;;;;6.47;4.72;;;7.30;99.90;;;;;;5013368;28;20038;-56
2022/09/21 02:43:08;;;;;;;17.48;5.93;;;7.20;99.90;;;;;;5028620;28;20029;-56
2022/09/21 02:45:44;;;;;;;11.60;6.07;;;7.30;99.90;;;;;;5031761;28;20643;-56
2022/09/21 02:48:18;;;;;;;7.95;4.88;;;7.20;99.90;;;;;;5032601;28;20112;-56
2022/09/21 02:50:49;;;;;;;7.72;4.90;;;7.20;99.90;;;;;;5032821;28;20021;-56
2022/09/21 02:53:20;;;;;;;9.32;4.82;;;7.20;99.90;;;;;;5023994;28;20038;-56
2022/09/21 02:55:48;;;;;;;8.13;5.13;;;7.20;99.90;;;;;;5021236;28;20259;-57
2022/09/21 02:58:16;;;;;;;10.30;5.10;;;7.00;99.90;;;;;;5026153;28;20017;-57
2022/09/21 03:00:42;;;;;;;7.53;4.93;;;7.00;99.90;;;;;;5021491;28;20044;-56
2022/09/21 03:03:16;;;;;;;8.15;5.53;;;7.00;99.90;;;;;;5025004;28;20418;-57
2022/09/21 03:05:44;;;;;;;12.68;6.25;;;7.00;99.90;;;;;;5035686;28;20521;-58
2022/09/21 03:08:09;;;;;;;16.23;5.55;;;7.10;99.90;;;;;;5032830;28;20041;-57
2022/09/21 03:10:38;;;;;;;16.45;7.75;;;7.10;99.90;;;;;;5031561;28;20710;-56
2022/09/21 03:13:04;;;;;;;13.15;6.68;;;7.20;99.90;;;;;;5024890;28;20064;-56
2022/09/21 03:15:30;;;;;;;14.57;6.97;;;7.10;99.90;;;;;;5028327;28;20029;-57
2022/09/21 03:17:55;;;;;;;14.23;6.97;;;7.10;99.90;;;;;;5032516;28;20021;-57
2022/09/21 03:20:21;;;;;;;18.20;10.65;;;7.10;99.90;;;;;;5033959;28;20108;-57
2022/09/21 03:22:46;;;;;;;17.63;10.10;;;7.20;99.90;;;;;;5021890;28;20545;-57
2022/09/21 03:25:12;;;;;;;20.15;10.27;;;7.30;99.90;;;;;;5024199;28;20623;-57
2022/09/21 03:27:38;;;;;;;19.73;10.45;;;7.30;99.90;;;;;;5032378;28;20017;-57
2022/09/21 03:30:04;;;;;;;17.83;10.70;;;7.40;99.90;;;;;;5032251;28;20639;-57
2022/09/21 03:32:29;;;;;;;25.75;13.23;;;7.40;99.90;;;;;;5031870;28;20471;-57
2022/09/21 03:34:55;;;;;;;18.85;12.55;;;7.40;99.90;;;;;;5039321;28;20509;-57
2022/09/21 03:37:20;;;;;;;21.67;13.07;;;7.40;99.90;;;;;;5032533;28;20668;-58
2022/09/21 03:39:46;;;;;;;21.88;13.23;;;7.40;99.90;;;;;;5031966;28;20029;-57
2022/09/21 03:42:12;;;;;;;24.30;13.32;;;7.40;99.90;;;;;;5031955;28;20049;-57
2022/09/21 03:44:39;;;;;;;23.13;12.77;;;7.50;99.90;;;;;;5032033;28;20148;-58
2022/09/21 03:47:05;;;;;;;21.60;13.10;;;7.50;99.90;;;;;;5032090;28;20021;-56
2022/09/21 03:49:31;;;;;;;21.83;14.20;;;7.50;99.90;;;;;;5031948;28;20491;-57
2022/09/21 03:51:58;;;;;;;20.35;13.18;;;7.50;99.90;;;;;;5031847;28;20091;-57
2022/09/21 03:54:24;;;;;;;22.88;12.98;;;7.50;99.90;;;;;;5031308;28;20017;-56
2022/09/21 03:56:50;;;;;;;23.30;13.80;;;7.50;99.90;;;;;;5031707;28;20116;-56
2022/09/21 03:59:16;;;;;;;19.15;12.65;;;7.40;99.90;;;;;;5020883;28;20121;-57
2022/09/21 04:01:42;;;;;;;23.75;14.18;;;7.40;99.90;;;;;;5012340;28;20026;-57
2022/09/21 04:04:08;;;;;;;24.15;13.43;;;7.40;99.90;;;;;;5026372;28;20028;-57
2022/09/21 04:06:34;;;;;;;21.38;12.68;;;7.40;99.90;;;;;;5038850;28;20026;-57
2022/09/21 04:09:01;;;;;;;22.27;13.10;;;7.40;99.90;;;;;;5039095;28;20497;-57
2022/09/21 04:11:27;;;;;;;24.70;14.38;;;7.30;99.90;;;;;;5043853;28;20071;-57
2022/09/21 04:13:55;;;;;;;19.75;13.00;;;7.30;99.90;;;;;;5042199;28;20441;-57
2022/09/21 04:16:24;;;;;;;21.15;12.68;;;7.30;99.90;;;;;;5042485;28;20017;-57
2022/09/21 04:18:50;;;;;;;20.52;12.45;;;7.20;99.90;;;;;;5046730;28;20017;-57
2022/09/21 04:21:17;;;;;;;22.95;13.88;;;7.20;99.90;;;;;;5042017;28;20438;-58
2022/09/21 04:23:43;;;;;;;26.88;16.08;;;7.20;99.90;;;;;;5050931;28;20021;-57
2022/09/21 04:26:24;;;;;;;22.00;14.05;;;7.20;99.90;;;;;;5051334;28;20087;-57
2022/09/21 04:28:50;;;;;;;;;;;7.20;99.90;;;;;;5050109;28;20664;-57
2022/09/21 04:31:15;;;;;;;25.05;13.82;;;7.20;99.90;;;;;;5051230;28;19915;-57
2022/09/21 04:33:41;;;;;;;27.02;13.25;;;7.20;99.90;;;;;;5049520;28;20032;-58
2022/09/21 04:36:06;;;;;;;21.40;13.20;;;7.10;99.90;;;;;;5050821;28;20462;-57
2022/09/21 04:38:32;;;;;;;25.75;15.65;;;7.10;99.90;;;;;;5051018;28;20025;-58
2022/09/21 04:40:58;;;;;;;24.60;14.32;;;7.10;99.90;;;;;;5050884;28;20071;-55
2022/09/21 04:43:24;;;;;;;19.08;12.85;;;7.00;99.90;;;;;;5048316;28;20025;-56
2022/09/21 04:45:50;;;;;;;19.58;13.20;;;7.00;99.90;;;;;;5048739;28;20072;-55
2022/09/21 04:48:15;;;;;;;19.48;13.38;;;7.00;99.90;;;;;;5050325;28;20069;-55
2022/09/21 04:50:41;;;;;;;18.67;12.57;;;7.00;99.90;;;;;;5039666;28;20029;-58
2022/09/21 04:53:06;;;;;;;22.50;13.70;;;7.00;99.90;;;;;;5047606;28;20021;-58
2022/09/21 04:55:32;;;;;;;22.27;13.73;;;7.00;99.90;;;;;;5050425;28;20075;-57
2022/09/21 04:57:57;;;;;;;18.45;12.35;;;6.90;99.90;;;;;;5049847;28;20056;-57
2022/09/21 05:00:23;;;;;;;20.20;12.30;;;6.90;99.90;;;;;;5049690;28;20478;-58
2022/09/21 05:02:50;;;;;;;22.27;12.77;;;6.90;99.90;;;;;;5049142;28;20021;-57
2022/09/21 05:05:15;;;;;;;20.17;11.88;;;6.90;99.90;;;;;;5037109;28;20120;-57
2022/09/21 05:07:41;;;;;;;20.05;12.13;;;6.90;99.90;;;;;;5020119;28;20096;-58
2022/09/21 05:10:10;;;;;;;20.10;13.13;;;6.90;99.90;;;;;;5019674;28;20025;-57
2022/09/21 05:12:35;;;;;;;25.83;16.05;;;6.90;99.90;;;;;;5020141;28;20044;-57
2022/09/21 05:15:01;;;;;;;28.88;15.20;;;6.90;99.90;;;;;;5016186;28;20029;-57
2022/09/21 05:17:27;;;;;;;27.08;15.65;;;6.90;99.90;;;;;;5009266;28;20022;-57
2022/09/21 05:19:52;;;;;;;27.75;15.40;;;7.00;99.90;;;;;;5008892;28;20488;-58
2022/09/21 05:22:18;;;;;;;32.42;17.13;;;7.00;99.90;;;;;;5010227;28;20065;-57
2022/09/21 05:24:44;;;;;;;29.83;17.85;;;7.10;99.90;;;;;;5009021;28;20479;-57
2022/09/21 05:27:09;;;;;;;34.85;19.15;;;7.10;99.90;;;;;;5008980;28;20033;-57
2022/09/21 05:29:35;;;;;;;35.55;20.33;;;7.10;99.90;;;;;;5009613;28;20032;-57
2022/09/21 05:32:30;;;;;;;30.02;17.13;;;7.20;99.90;;;;;;5010248;28;20022;-58
2022/09/21 05:35:15;;;;;;;34.38;18.15;;;7.20;99.90;;;;;;5024681;28;20498;-57
2022/09/21 05:37:49;;;;;;;37.92;20.30;;;7.20;99.90;;;;;;5011879;28;20022;-57
2022/09/21 05:40:15;;;;;;;31.08;17.25;;;7.30;99.90;;;;;;5027939;28;20026;-57
2022/09/21 05:42:41;;;;;;;34.13;19.00;;;7.30;99.90;;;;;;5036204;28;20017;-57
2022/09/21 05:45:11;;;;;;;32.05;18.55;;;7.30;99.90;;;;;;5040727;28;20605;-57
2022/09/21 05:47:54;;;;;;;29.70;16.63;;;7.30;99.90;;;;;;5025892;28;20045;-57
2022/09/21 05:50:42;;;;;;;26.25;16.50;;;7.30;99.90;;;;;;5026791;28;20487;-58
2022/09/21 05:53:29;;;;;;;24.63;14.77;;;7.40;99.90;;;;;;5038085;28;20029;-57
2022/09/21 05:55:57;;;;;;;30.83;17.67;;;7.40;99.90;;;;;;5035785;28;20710;-57
2022/09/21 05:58:56;;;;;;;33.88;20.00;;;7.40;99.90;;;;;;5031399;28;20021;-57
2022/09/21 06:01:33;;;;;;;31.58;17.42;;;7.40;99.90;;;;;;5040561;28;20104;-57
2022/09/21 06:04:00;;;;;;;49.20;20.88;;;7.50;99.90;;;;;;5028538;28;20024;-58
2022/09/21 06:06:26;;;;;;;33.15;20.33;;;7.50;99.90;;;;;;5029511;28;20736;-58
2022/09/21 06:08:51;;;;;;;32.85;19.27;;;7.60;99.90;;;;;;5024968;28;20060;-58
2022/09/21 06:11:17;;;;;;;38.47;21.95;;;7.70;99.90;;;;;;5027358;28;20108;-58
2022/09/21 06:13:43;;;;;;;33.55;20.02;;;7.70;99.90;;;;;;5028544;28;20022;-58
2022/09/21 06:16:08;;;;;;;33.28;19.77;;;7.80;99.90;;;;;;5027023;28;20025;-57
2022/09/21 06:18:38;;;;;;;30.77;18.05;;;7.90;99.90;;;;;;5031694;28;20108;-58
2022/09/21 06:21:04;;;;;;;25.15;16.73;;;7.90;99.90;;;;;;5034672;28;20017;-58
2022/09/21 06:23:31;;;;;;;30.85;18.00;;;8.00;99.90;;;;;;5034700;28;20025;-58
2022/09/21 06:25:56;;;;;;;25.58;17.30;;;8.10;99.90;;;;;;5036882;28;20042;-58
2022/09/21 06:28:22;;;;;;;25.38;17.38;;;8.10;99.90;;;;;;5033508;28;20036;-58
2022/09/21 06:30:52;;;;;;;26.88;16.30;;;8.20;99.90;;;;;;5027173;28;20033;-58
2022/09/21 06:33:20;;;;;;;30.17;18.55;;;8.30;99.90;;;;;;5027248;28;20025;-58
2022/09/21 06:35:58;;;;;;;25.63;16.15;;;8.40;99.90;;;;;;5016062;28;20025;-57
2022/09/21 06:38:25;;;;;;;23.88;15.52;;;8.40;99.90;;;;;;5019726;28;20491;-58
2022/09/21 06:40:51;;;;;;;25.55;16.67;;;8.50;99.90;;;;;;5017085;28;20022;-58
2022/09/21 06:43:17;;;;;;;22.45;15.60;;;8.60;99.90;;;;;;5023004;28;20717;-58
2022/09/21 06:45:43;;;;;;;26.00;15.32;;;8.60;99.90;;;;;;5027575;28;20026;-58
2022/09/21 06:48:09;;;;;;;21.33;14.60;;;8.70;99.90;;;;;;5028217;28;20032;-57
2022/09/21 06:50:35;;;;;;;19.05;14.57;;;8.80;99.90;;;;;;5028933;28;20483;-58
2022/09/21 06:53:02;;;;;;;18.75;14.10;;;8.90;99.90;;;;;;5036952;28;20017;-58
2022/09/21 06:55:28;;;;;;;29.80;15.68;;;8.90;99.90;;;;;;5044766;28;20104;-57
2022/09/21 06:58:02;;;;;;;21.63;13.85;;;8.90;99.90;;;;;;5043483;28;20043;-57
2022/09/21 07:00:28;;;;;;;22.88;14.27;;;9.00;99.90;;;;;;5024636;28;20076;-58
2022/09/21 07:02:53;;;;;;;20.63;12.65;;;9.00;99.90;;;;;;5031563;28;20025;-57
2022/09/21 07:05:19;;;;;;;24.42;13.93;;;9.00;99.90;;;;;;5032542;28;20057;-58
2022/09/21 07:07:44;;;;;;;20.58;13.68;;;9.00;99.90;;;;;;5032132;28;20061;-57
2022/09/21 07:10:10;;;;;;;20.55;14.18;;;9.00;99.90;;;;;;5037106;28;20026;-57
2022/09/21 07:12:35;;;;;;;23.60;14.52;;;9.10;99.90;;;;;;5032189;28;20051;-57
2022/09/21 07:15:02;;;;;;;17.80;12.57;;;9.30;99.90;;;;;;5032460;28;20033;-57
2022/09/21 07:17:33;;;;;;;19.08;13.00;;;9.30;99.90;;;;;;5032489;28;20022;-57
2022/09/21 07:20:00;;;;;;;21.05;13.25;;;9.40;99.90;;;;;;5031767;28;20030;-57
2022/09/21 07:22:27;;;;;;;27.15;14.00;;;9.40;99.90;;;;;;5019654;28;20025;-58
2022/09/21 07:24:53;;;;;;;19.65;13.25;;;9.50;99.90;;;;;;5031666;28;20440;-60
2022/09/21 07:27:19;;;;;;;21.27;13.40;;;9.50;99.90;;;;;;5031177;28;20100;-60
2022/09/21 07:29:44;;;;;;;25.90;13.40;;;9.60;99.90;;;;;;5028418;28;20104;-60
2022/09/21 07:32:12;;;;;;;24.98;14.15;;;9.70;99.90;;;;;;5030609;28;20030;-60
2022/09/21 07:34:37;;;;;;;23.35;13.77;;;9.70;99.90;;;;;;5029098;28;20026;-60
2022/09/21 07:37:03;;;;;;;22.98;13.98;;;9.80;99.90;;;;;;5029920;28;20030;-60
2022/09/21 07:39:29;;;;;;;21.40;12.93;;;10.00;99.90;;;;;;5030183;28;20021;-60
2022/09/21 07:41:54;;;;;;;17.90;11.63;;;10.10;99.90;;;;;;5030439;28;20029;-60
2022/09/21 07:44:21;;;;;;;16.73;11.35;;;10.40;99.90;;;;;;5030176;28;20022;-60
2022/09/21 07:46:48;;;;;;;18.35;12.10;;;10.60;99.90;;;;;;5030688;28;20060;-60
2022/09/21 07:49:13;;;;;;;20.08;12.50;;;10.80;99.90;;;;;;5028740;28;20115;-60
2022/09/21 07:51:39;;;;;;;19.17;12.80;;;10.80;99.90;;;;;;5030081;28;20069;-60
2022/09/21 07:54:04;;;;;;;21.58;12.40;;;11.00;99.90;;;;;;5027747;28;20025;-60
2022/09/21 07:56:30;;;;;;;19.10;12.18;;;11.10;99.90;;;;;;5023042;28;20456;-59
2022/09/21 07:59:07;;;;;;;14.25;10.68;;;11.40;99.90;;;;;;5030680;28;20037;-59
2022/09/21 08:01:40;;;;;;;15.50;10.65;;;11.50;99.90;;;;;;5027398;28;20013;-59
2022/09/21 08:04:08;;;;;;;19.90;11.70;;;11.60;99.90;;;;;;5019869;28;20025;-60
2022/09/21 08:06:36;;;;;;;18.15;11.25;;;11.70;99.90;;;;;;5031198;28;20818;-60
2022/09/21 08:09:03;;;;;;;17.23;12.05;;;11.80;99.90;;;;;;5032804;28;20052;-60
2022/09/21 08:11:31;;;;;;;16.05;11.18;;;11.80;99.90;;;;;;5030564;28;20026;-59
2022/09/21 08:14:01;;;;;;;15.20;10.48;;;12.10;99.90;;;;;;5027741;28;20610;-59
2022/09/21 08:16:27;;;;;;;14.80;10.10;;;12.70;99.90;;;;;;5029242;28;20503;-60
2022/09/21 08:18:53;;;;;;;10.23;8.63;;;13.50;99.90;;;;;;5030045;28;20469;-59
2022/09/21 08:21:19;;;;;;;11.05;8.52;;;14.10;99.90;;;;;;5029957;28;20033;-60
2022/09/21 08:23:46;;;;;;;13.60;9.88;;;15.30;99.90;;;;;;5028989;28;20048;-60
2022/09/21 08:26:20;;;;;;;10.20;7.85;;;16.00;99.90;;;;;;5029234;28;20028;-60
2022/09/21 08:28:50;;;;;;;9.13;6.50;;;17.40;99.90;;;;;;5029845;28;20018;-60
2022/09/21 08:31:18;;;;;;;7.18;6.32;;;18.20;99.90;;;;;;5029333;28;20639;-60
2022/09/21 08:33:44;;;;;;;7.50;5.13;;;19.30;98.90;;;;;;5029591;28;20040;-60
2022/09/21 08:36:10;;;;;;;6.70;5.80;;;20.20;96.60;;;;;;5029839;28;20029;-60
2022/09/21 08:38:37;;;;;;;8.27;4.50;;;20.90;93.80;;;;;;5023525;28;20033;-59
2022/09/21 08:41:14;;;;;;;5.53;4.50;;;21.80;92.80;;;;;;5022766;28;20352;-58
2022/09/21 08:43:43;;;;;;;5.65;3.90;;;22.90;90.10;;;;;;5017533;28;20032;-59
2022/09/21 08:46:21;;;;;;;7.03;3.70;;;23.90;83.80;;;;;;5018861;28;20026;-58
2022/09/21 08:48:53;;;;;;;7.28;4.60;;;24.20;81.70;;;;;;5021454;28;20034;-58
2022/09/21 08:51:25;;;;;;;6.18;3.67;;;24.50;79.00;;;;;;5028013;28;20033;-58
2022/09/21 08:54:00;;;;;;;13.52;4.78;;;25.30;74.80;;;;;;5027580;28;20025;-59
2022/09/21 08:56:26;;;;;;;7.72;4.53;;;25.30;75.60;;;;;;5018686;28;20033;-58
2022/09/21 08:58:52;;;;;;;8.63;4.15;;;25.80;71.40;;;;;;5027175;28;20566;-58
2022/09/21 09:01:32;;;;;;;5.20;4.10;;;25.80;70.80;;;;;;5027502;28;20104;-52
2022/09/21 09:04:14;;;;;;;6.70;3.95;;;26.40;69.90;;;;;;5024502;28;20029;-52
2022/09/21 09:06:58;;;;;;;5.68;3.50;;;26.50;68.90;;;;;;5025783;28;20411;-52
2022/09/21 09:09:33;;;;;;;4.82;2.90;;;27.10;67.20;;;;;;5024032;28;20025;-52
2022/09/21 09:12:34;;;;;;;4.95;3.17;;;27.40;66.20;;;;;;5027433;28;20032;-53
2022/09/21 09:15:12;;;;;;;5.00;3.30;;;27.80;64.50;;;;;;5024505;28;20113;-52
2022/09/21 09:17:57;;;;;;;6.00;4.45;;;28.00;64.60;;;;;;5028764;28;20018;-52
2022/09/21 09:20:37;;;;;;;3.63;3.03;;;27.80;62.40;;;;;;5027034;28;20030;-52
2022/09/21 09:23:11;;;;;;;;;;;27.70;61.90;;;;;;5027979;28;20067;-52
2022/09/21 09:25:39;;;;;;;4.35;2.85;;;28.00;62.30;;;;;;5023818;28;20334;-53
2022/09/21 09:28:31;;;;;;;5.65;2.58;;;28.40;62.10;;;;;;5020104;28;20699;-53
2022/09/21 09:31:26;;;;;;;7.63;2.63;;;27.50;62.70;;;;;;5015719;28;20552;-53
2022/09/21 09:34:16;;;;;;;5.22;2.42;;;28.30;63.30;;;;;;5022357;28;20030;-54
2022/09/21 09:36:49;;;;;;;4.45;2.20;;;28.70;61.80;;;;;;5022711;28;20109;-54
2022/09/21 09:39:15;;;;;;;4.43;2.50;;;28.50;60.50;;;;;;5019263;28;20037;-54
2022/09/21 09:41:53;;;;;;;4.93;3.28;;;29.10;60.10;;;;;;5022490;28;20021;-54
2022/09/21 09:44:27;;;;;;;4.05;2.45;;;28.90;62.10;;;;;;5016969;28;20026;-54
2022/09/21 09:47:18;;;;;;;4.53;2.75;;;28.90;60.90;;;;;;5016710;28;20022;-54
2022/09/21 09:50:05;;;;;;;6.15;2.85;;;28.80;61.70;;;;;;5019285;28;20029;-54
2022/09/21 09:52:32;;;;;;;5.10;2.55;;;28.90;60.10;;;;;;5021172;28;20097;-54
2022/09/21 09:54:59;;;;;;;5.47;2.17;;;29.40;61.30;;;;;;5014157;28;20033;-54
2022/09/21 09:57:32;;;;;;;5.95;2.10;;;29.70;58.40;;;;;;5018895;28;20026;-54
2022/09/21 10:00:11;;;;;;;3.90;2.03;;;30.30;59.20;;;;;;5027332;28;20017;-54
2022/09/21 10:02:48;;;;;;;2.78;1.90;;;30.40;56.90;;;;;;5027168;28;20037;-54
2022/09/21 10:05:19;;;;;;;2.80;1.75;;;31.20;56.00;;;;;;5026061;28;20026;-54
2022/09/21 10:07:45;;;;;;;2.58;1.42;;;30.30;58.10;;;;;;5036325;28;20028;-54
2022/09/21 10:10:32;;;;;;;3.17;1.45;;;30.30;56.90;;;;;;5036067;28;20041;-54
2022/09/21 10:13:25;;;;;;;3.90;1.80;;;30.30;57.70;;;;;;5033738;28;20017;-54
2022/09/21 10:15:56;;;;;;;4.00;1.48;;;29.90;57.10;;;;;;5034460;28;20026;-54
2022/09/21 10:18:26;;;;;;;2.45;1.48;;;30.30;57.90;;;;;;5035597;28;20490;-54
2022/09/21 10:21:03;;;;;;;2.50;1.20;;;30.70;57.50;;;;;;5035470;28;20009;-54
2022/09/21 10:23:30;;;;;;;3.72;1.35;;;30.90;53.30;;;;;;5031548;28;20489;-54
2022/09/21 10:26:09;;;;;;;1.55;1.10;;;30.70;56.30;;;;;;5035241;28;20048;-54
2022/09/21 10:28:57;;;;;;;1.50;1.30;;;31.00;55.70;;;;;;5038253;28;20052;-54
2022/09/21 10:31:26;;;;;;;2.25;1.23;;;30.90;55.80;;;;;;5039899;28;20088;-54
2022/09/21 10:34:12;;;;;;;2.05;1.00;;;30.70;56.70;;;;;;5041376;28;20116;-54
2022/09/21 10:36:37;;;;;;;1.45;0.75;;;31.00;55.50;;;;;;5034204;28;20033;-54
2022/09/21 10:39:16;;;;;;;2.17;1.30;;;30.80;54.10;;;;;;5035241;28;20379;-54
2022/09/21 10:41:50;;;;;;;3.53;1.23;;;31.00;55.40;;;;;;5034424;28;20523;-55
2022/09/21 10:44:18;;;;;;;1.45;1.13;;;30.70;54.50;;;;;;5035013;28;20033;-54
2022/09/21 10:46:46;;;;;;;1.40;0.90;;;31.20;53.50;;;;;;5032157;28;20391;-55
2022/09/21 10:49:26;;;;;;;2.50;1.00;;;30.70;54.20;;;;;;5034376;28;20053;-54
2022/09/21 10:51:55;;;;;;;2.10;0.98;;;30.70;53.00;;;;;;5039195;28;20479;-54
2022/09/21 10:54:30;;;;;;;2.55;1.30;;;30.20;54.30;;;;;;5031201;28;20408;-54
2022/09/21 10:57:00;;;;;;;1.75;1.40;;;30.30;53.40;;;;;;5028323;28;20482;-54
2022/09/21 10:59:29;;;;;;;1.52;1.00;;;29.80;54.20;;;;;;5033295;28;20052;-54
2022/09/21 11:01:57;;;;;;;1.52;0.90;;;30.60;54.70;;;;;;5034553;28;20096;-53
2022/09/21 11:04:48;;;;;;;3.63;1.10;;;31.00;54.40;;;;;;5037043;28;20021;-53
2022/09/21 11:07:35;;;;;;;1.52;1.13;;;30.80;50.40;;;;;;5021228;28;20032;-53
2022/09/21 11:10:45;;;;;;;2.63;1.10;;;30.70;51.50;;;;;;5016033;28;20091;-53
2022/09/21 11:13:31;;;;;;;2.88;1.20;;;29.90;53.10;;;;;;5013401;28;20514;-53
2022/09/21 11:16:10;;;;;;;2.10;0.98;;;27.20;55.50;;;;;;5026768;28;20052;-53
2022/09/21 11:19:04;;;;;;;1.00;0.60;;;25.40;58.10;;;;;;5032330;28;20659;-53
2022/09/21 11:21:40;;;;;;;1.05;0.65;;;24.00;58.60;;;;;;5028668;28;20140;-53
2022/09/21 11:24:48;;;;;;;4.72;1.13;;;24.60;60.60;;;;;;5031390;28;20080;-52
2022/09/21 11:27:17;;;;;;;1.83;1.00;;;23.70;59.30;;;;;;5025736;28;20068;-52
2022/09/21 11:30:12;;;;;;;6.45;1.10;;;22.80;63.50;;;;;;5031068;28;20474;-52
2022/09/21 11:33:18;;;;;;;2.30;0.80;;;22.80;64.50;;;;;;5026713;28;20446;-53
2022/09/21 11:36:01;;;;;;;2.28;0.93;;;24.50;62.30;;;;;;5031054;28;20099;-54
2022/09/21 11:38:50;;;;;;;1.75;0.90;;;25.60;58.30;;;;;;5039555;28;20104;-54
2022/09/21 11:41:15;;;;;;;2.75;0.80;;;26.60;56.60;;;;;;5031119;28;20025;-54
2022/09/21 11:43:54;;;;;;;2.35;0.88;;;27.20;56.40;;;;;;5031990;28;20299;-54
2022/09/21 11:46:44;;;;;;;1.88;0.93;;;28.00;55.00;;;;;;5036209;28;20017;-54
2022/09/21 11:49:37;;;;;;;3.53;0.70;;;28.00;56.40;;;;;;5035632;28;20018;-54
2022/09/21 11:52:31;;;;;;;2.10;0.85;;;28.40;55.00;;;;;;5020175;28;20099;-53
2022/09/21 11:55:04;;;;;;;1.33;0.60;;;28.60;54.90;;;;;;5031101;28;20060;-53
2022/09/21 11:58:14;;;;;;;2.35;0.90;;;28.70;53.00;;;;;;5034088;28;20021;-54
2022/09/21 12:01:11;;;;;;;2.35;0.80;;;29.20;52.30;;;;;;5030369;28;20021;-54
2022/09/21 12:03:55;;;;;;;2.22;0.95;;;29.20;52.70;;;;;;5029213;28;20030;-54
2022/09/21 12:06:44;;;;;;;5.20;1.10;;;28.90;52.10;;;;;;5034233;28;20373;-53
2022/09/21 12:09:31;;;;;;;0.77;0.65;;;28.90;53.60;;;;;;5031474;28;20022;-53
2022/09/21 12:12:05;;;;;;;2.70;0.85;;;28.50;53.20;;;;;;5035331;28;20029;-53
2022/09/21 12:14:49;;;;;;;2.30;0.80;;;27.90;53.50;;;;;;5027583;28;20017;-53
2022/09/21 12:17:14;;;;;;;3.25;0.80;;;27.00;52.60;;;;;;5038911;28;20032;-52
2022/09/21 12:20:01;;;;;;;1.73;0.60;;;26.50;53.20;;;;;;5030774;28;20026;-52
2022/09/21 12:22:33;;;;;;;1.60;0.80;;;26.20;55.30;;;;;;5030773;28;20025;-51
2022/09/21 12:25:06;;;;;;;3.28;0.90;;;25.20;54.30;;;;;;5032329;28;20041;-52
2022/09/21 12:27:46;;;;;;;6.45;0.70;;;24.00;56.80;;;;;;5030722;28;20029;-51
2022/09/21 12:30:17;;;;;;;0.82;0.50;;;22.90;55.60;;;;;;5033034;28;20174;-51
2022/09/21 12:32:56;;;;;;;1.05;0.57;;;22.00;58.60;;;;;;5032293;28;20069;-51
2022/09/21 12:35:45;;;;;;;0.93;0.67;;;21.70;58.40;;;;;;5033661;28;20014;-51
2022/09/21 12:38:34;;;;;;;2.45;0.93;;;21.80;58.40;;;;;;5033929;28;20219;-50
2022/09/21 12:41:22;;;;;;;1.67;0.70;;;22.00;58.00;;;;;;5031051;28;20013;-51
2022/09/21 12:44:06;;;;;;;6.55;1.00;;;22.30;60.30;;;;;;5030448;28;20087;-51
2022/09/21 12:46:45;;;;;;;5.75;1.13;;;22.40;62.40;;;;;;5031524;28;20038;-50
2022/09/21 12:49:16;;;;;;;4.43;1.20;;;22.50;60.80;;;;;;5021673;28;20105;-51
2022/09/21 12:51:51;;;;;;;4.18;1.10;;;22.40;63.10;;;;;;5018615;28;20099;-51
2022/09/21 12:54:36;;;;;;;3.13;0.80;;;21.90;61.20;;;;;;5015555;28;20139;-51
2022/09/21 12:57:21;;;;;;;2.45;0.88;;;21.80;61.40;;;;;;5028126;28;20028;-51
2022/09/21 13:00:02;;;;;;;1.88;0.60;;;21.70;62.80;;;;;;5027312;28;20029;-51
2022/09/21 13:02:43;;;;;;;3.65;0.88;;;22.20;65.40;;;;;;5028664;28;20024;-50
2022/09/21 13:05:15;;;;;;;1.50;0.98;;;22.10;64.10;;;;;;5036052;28;20121;-50
2022/09/21 13:08:11;;;;;;;5.55;2.30;;;21.40;62.30;;;;;;5035216;28;20088;-50
2022/09/21 13:10:58;;;;;;;3.85;1.10;;;20.70;63.90;;;;;;5033836;28;20020;-52
2022/09/21 13:13:28;;;;;;;2.70;0.95;;;20.80;68.70;;;;;;5035116;28;20021;-49
2022/09/21 13:15:55;;;;;;;2.35;0.88;;;21.20;69.50;;;;;;5031435;28;20044;-52